ASXGS EDDH-EDDH
Flight info
| Callsign | ASXGS |
|---|---|
| Flight time | 0h 3m |
| Altitude | 3000 |
| Route | HAM |
| Aircraft | DA42/L-SBDGRY/S |
Departure
| Time | 2026-05-05 14:38 |
|---|---|
| Airport | Hamburg Helmut Schmidt Airport (EDDH) |
Arrival
| Time | 2026-05-05 14:41 |
|---|---|
| Airport | Hamburg Helmut Schmidt Airport (EDDH) |
| Time | Latitude | Longitude | Altitude | Speed | Heading |
|---|---|---|---|---|---|
| 2026-05-05 14:23 | 53.62646 | 9.98778 | 41 ft | 0 kts | 62° |
| 2026-05-05 14:34 | 53.62648 | 9.98780 | 41 ft | 1 kts | 21° |
| 2026-05-05 14:34 | 53.62646 | 9.98751 | 41 ft | 7 kts | 228° |
| 2026-05-05 14:34 | 53.62669 | 9.98683 | 41 ft | 11 kts | 334° |
| 2026-05-05 14:35 | 53.62740 | 9.98644 | 41 ft | 12 kts | 37° |
| 2026-05-05 14:35 | 53.62757 | 9.98678 | 41 ft | 4 kts | 62° |
| 2026-05-05 14:35 | 53.62733 | 9.98645 | 41 ft | 11 kts | 236° |
| 2026-05-05 14:35 | 53.62698 | 9.98502 | 41 ft | 17 kts | 303° |
| 2026-05-05 14:36 | 53.62754 | 9.98471 | 39 ft | 0 kts | 7° |
| 2026-05-05 14:36 | 53.62758 | 9.98472 | 39 ft | 4 kts | 8° |
| 2026-05-05 14:36 | 53.62816 | 9.98493 | 38 ft | 12 kts | 18° |
| 2026-05-05 14:37 | 53.62903 | 9.98569 | 39 ft | 16 kts | 37° |
| 2026-05-05 14:37 | 53.63031 | 9.98805 | 40 ft | 60 kts | 50° |
| 2026-05-05 14:37 | 53.63392 | 9.99518 | 227 ft | 89 kts | 50° |
| 2026-05-05 14:37 | 53.63854 | 10.00335 | 413 ft | 100 kts | 50° |
| 2026-05-05 14:38 | 53.64261 | 10.01239 | 622 ft | 99 kts | 60° |
| 2026-05-05 14:38 | 53.64385 | 10.02343 | 791 ft | 106 kts | 114° |
| 2026-05-05 14:38 | 53.63812 | 10.03204 | 922 ft | 113 kts | 136° |
| 2026-05-05 14:38 | 53.63097 | 10.03802 | 1058 ft | 125 kts | 174° |
| 2026-05-05 14:39 | 53.62262 | 10.03343 | 1112 ft | 134 kts | 218° |
| 2026-05-05 14:39 | 53.61728 | 10.02022 | 1084 ft | 140 kts | 243° |
| 2026-05-05 14:39 | 53.61306 | 10.00656 | 1045 ft | 129 kts | 244° |
| 2026-05-05 14:39 | 53.60928 | 9.99434 | 993 ft | 107 kts | 244° |
| 2026-05-05 14:40 | 53.60595 | 9.98363 | 980 ft | 101 kts | 242° |
| 2026-05-05 14:40 | 53.60310 | 9.97319 | 955 ft | 93 kts | 255° |
| 2026-05-05 14:40 | 53.60366 | 9.96222 | 831 ft | 99 kts | 296° |
| 2026-05-05 14:40 | 53.60833 | 9.95514 | 639 ft | 89 kts | 357° |
| 2026-05-05 14:41 | 53.61405 | 9.95694 | 333 ft | 83 kts | 33° |
| 2026-05-05 14:41 | 53.61822 | 9.96348 | 166 ft | 81 kts | 53° |
| 2026-05-05 14:41 | 53.62167 | 9.97056 | 49 ft | 72 kts | 53° |
| 2026-05-05 14:41 | 53.62421 | 9.97575 | 35 ft | 46 kts | 50° |
| 2026-05-05 14:42 | 53.62754 | 9.98234 | 118 ft | 93 kts | 51° |
| 2026-05-05 14:42 | 53.63220 | 9.99164 | 300 ft | 112 kts | 51° |
| 2026-05-05 14:42 | 53.63729 | 10.00184 | 478 ft | 113 kts | 53° |
| 2026-05-05 14:42 | 53.64173 | 10.01188 | 695 ft | 105 kts | 67° |
| 2026-05-05 14:43 | 53.64001 | 10.02379 | 772 ft | 117 kts | 132° |
| 2026-05-05 14:43 | 53.63327 | 10.03193 | 842 ft | 120 kts | 144° |
| 2026-05-05 14:43 | 53.62518 | 10.03398 | 937 ft | 128 kts | 194° |
| 2026-05-05 14:43 | 53.61804 | 10.02484 | 934 ft | 129 kts | 237° |
| 2026-05-05 14:44 | 53.61384 | 10.01196 | 912 ft | 122 kts | 245° |
| 2026-05-05 14:44 | 53.61052 | 9.99850 | 817 ft | 125 kts | 250° |
| 2026-05-05 14:44 | 53.60757 | 9.98479 | 755 ft | 124 kts | 249° |
| 2026-05-05 14:44 | 53.60427 | 9.97244 | 781 ft | 108 kts | 239° |
| 2026-05-05 14:45 | 53.60055 | 9.96187 | 749 ft | 98 kts | 243° |
| 2026-05-05 14:45 | 53.59874 | 9.95031 | 721 ft | 106 kts | 280° |
| 2026-05-05 14:45 | 53.60300 | 9.94269 | 748 ft | 95 kts | 7° |
| 2026-05-05 14:45 | 53.60936 | 9.94652 | 545 ft | 92 kts | 39° |
| 2026-05-05 14:46 | 53.61349 | 9.95406 | 346 ft | 83 kts | 50° |
| 2026-05-05 14:46 | 53.61711 | 9.96123 | 209 ft | 81 kts | 52° |
| 2026-05-05 14:46 | 53.62070 | 9.96859 | 73 ft | 80 kts | 53° |
| 2026-05-05 14:46 | 53.62379 | 9.97481 | 35 ft | 53 kts | 52° |
| 2026-05-05 14:47 | 53.62592 | 9.97914 | 36 ft | 56 kts | 48° |
| 2026-05-05 14:47 | 53.62951 | 9.98639 | 71 ft | 96 kts | 51° |
| 2026-05-05 14:47 | 53.63388 | 9.99510 | 239 ft | 103 kts | 51° |
| 2026-05-05 14:47 | 53.63852 | 10.00488 | 411 ft | 110 kts | 53° |
| 2026-05-05 14:48 | 53.64355 | 10.01474 | 639 ft | 107 kts | 49° |
| 2026-05-05 14:48 | 53.64555 | 10.02562 | 807 ft | 107 kts | 111° |
| 2026-05-05 14:48 | 53.63902 | 10.03265 | 874 ft | 116 kts | 152° |
| 2026-05-05 14:48 | 53.63079 | 10.03609 | 947 ft | 130 kts | 179° |
| 2026-05-05 14:49 | 53.62372 | 10.02599 | 899 ft | 145 kts | 237° |
| 2026-05-05 14:49 | 53.61870 | 10.01222 | 874 ft | 128 kts | 237° |
| 2026-05-05 14:49 | 53.61420 | 10.00024 | 881 ft | 119 kts | 239° |
| 2026-05-05 14:49 | 53.61003 | 9.98848 | 894 ft | 116 kts | 239° |
| 2026-05-05 14:50 | 53.60575 | 9.97671 | 1022 ft | 121 kts | 236° |
| 2026-05-05 14:50 | 53.60094 | 9.96448 | 1051 ft | 127 kts | 238° |
| 2026-05-05 14:50 | 53.59601 | 9.95164 | 1040 ft | 135 kts | 238° |
| 2026-05-05 14:50 | 53.59134 | 9.93848 | 1056 ft | 115 kts | 251° |
| 2026-05-05 14:51 | 53.59177 | 9.92611 | 988 ft | 109 kts | 292° |
| 2026-05-05 14:51 | 53.59498 | 9.91409 | 925 ft | 117 kts | 308° |
| 2026-05-05 14:51 | 53.60039 | 9.90421 | 977 ft | 116 kts | 328° |
| 2026-05-05 14:51 | 53.60735 | 9.89825 | 1065 ft | 115 kts | 339° |
| 2026-05-05 14:52 | 53.61487 | 9.89405 | 1063 ft | 114 kts | 351° |
| 2026-05-05 14:52 | 53.62241 | 9.89006 | 1170 ft | 115 kts | 339° |
| 2026-05-05 14:52 | 53.62884 | 9.88173 | 1192 ft | 122 kts | 311° |
| 2026-05-05 14:52 | 53.63259 | 9.86839 | 1181 ft | 127 kts | 297° |
| 2026-05-05 14:53 | 53.63666 | 9.85532 | 1145 ft | 126 kts | 306° |
| 2026-05-05 14:53 | 53.64184 | 9.84358 | 1089 ft | 124 kts | 313° |
| 2026-05-05 14:53 | 53.64823 | 9.83420 | 1048 ft | 122 kts | 333° |
| 2026-05-05 14:53 | 53.65544 | 9.82715 | 992 ft | 119 kts | 335° |
| 2026-05-05 14:54 | 53.66253 | 9.81995 | 930 ft | 121 kts | 330° |
| 2026-05-05 14:54 | 53.66919 | 9.81169 | 979 ft | 114 kts | 330° |
| 2026-05-05 14:54 | 53.67530 | 9.80366 | 1070 ft | 113 kts | 326° |
| 2026-05-05 14:54 | 53.68142 | 9.79505 | 1090 ft | 115 kts | 325° |
| 2026-05-05 14:55 | 53.68742 | 9.78686 | 1264 ft | 110 kts | 328° |
| 2026-05-05 14:55 | 53.69355 | 9.77882 | 1356 ft | 115 kts | 323° |
| 2026-05-05 14:55 | 53.69774 | 9.76646 | 1367 ft | 126 kts | 290° |
| 2026-05-05 14:55 | 53.69930 | 9.75207 | 1493 ft | 123 kts | 283° |
| 2026-05-05 14:56 | 53.70057 | 9.73758 | 1497 ft | 126 kts | 282° |
| 2026-05-05 14:56 | 53.70160 | 9.72291 | 1529 ft | 128 kts | 280° |
| 2026-05-05 14:56 | 53.70231 | 9.70780 | 1479 ft | 127 kts | 273° |
| 2026-05-05 14:56 | 53.70139 | 9.69367 | 1665 ft | 122 kts | 263° |
| 2026-05-05 14:57 | 53.69975 | 9.67950 | 1711 ft | 124 kts | 259° |
| 2026-05-05 14:57 | 53.69780 | 9.66534 | 1791 ft | 124 kts | 259° |
| 2026-05-05 14:57 | 53.69548 | 9.65094 | 1780 ft | 128 kts | 256° |
| 2026-05-05 14:57 | 53.69313 | 9.63663 | 1847 ft | 125 kts | 256° |
| 2026-05-05 14:58 | 53.69080 | 9.62247 | 1865 ft | 129 kts | 256° |
| 2026-05-05 14:58 | 53.68898 | 9.60734 | 1780 ft | 130 kts | 266° |
| 2026-05-05 14:58 | 53.68761 | 9.59247 | 1790 ft | 129 kts | 260° |
| 2026-05-05 14:58 | 53.68538 | 9.57831 | 1867 ft | 125 kts | 256° |
| 2026-05-05 14:59 | 53.68308 | 9.56415 | 1918 ft | 126 kts | 257° |
| 2026-05-05 14:59 | 53.68067 | 9.54996 | 2004 ft | 124 kts | 257° |
| 2026-05-05 14:59 | 53.67835 | 9.53633 | 2143 ft | 119 kts | 256° |
| 2026-05-05 14:59 | 53.67587 | 9.52277 | 2230 ft | 123 kts | 254° |
| 2026-05-05 15:00 | 53.67301 | 9.50877 | 2240 ft | 127 kts | 253° |
| 2026-05-05 15:00 | 53.67110 | 9.49950 | 2292 ft | 125 kts | 253° |
| 2026-05-05 15:00 | 53.66828 | 9.48546 | 2321 ft | 127 kts | 254° |
| 2026-05-05 15:00 | 53.66533 | 9.47135 | 2353 ft | 128 kts | 252° |
| 2026-05-05 15:01 | 53.66208 | 9.45730 | 2334 ft | 131 kts | 252° |
| 2026-05-05 15:01 | 53.65883 | 9.44230 | 2170 ft | 138 kts | 253° |
| 2026-05-05 15:01 | 53.65612 | 9.42705 | 2138 ft | 132 kts | 258° |
| 2026-05-05 15:01 | 53.65387 | 9.41215 | 2107 ft | 131 kts | 257° |
| 2026-05-05 15:02 | 53.64954 | 9.39893 | 2063 ft | 133 kts | 214° |
| 2026-05-05 15:02 | 53.64070 | 9.39766 | 1957 ft | 128 kts | 167° |
| 2026-05-05 15:02 | 53.63202 | 9.40030 | 1983 ft | 126 kts | 164° |
| 2026-05-05 15:02 | 53.62395 | 9.40383 | 2138 ft | 115 kts | 155° |
| 2026-05-05 15:03 | 53.61652 | 9.40890 | 2256 ft | 113 kts | 147° |
| 2026-05-05 15:03 | 53.61040 | 9.41687 | 2256 ft | 108 kts | 106° |
| 2026-05-05 15:03 | 53.61310 | 9.42724 | 2225 ft | 109 kts | 29° |
| 2026-05-05 15:03 | 53.61974 | 9.43261 | 2361 ft | 100 kts | 33° |
| 2026-05-05 15:04 | 53.62503 | 9.44064 | 2343 ft | 109 kts | 49° |
| 2026-05-05 15:04 | 53.62932 | 9.45116 | 2376 ft | 108 kts | 59° |
| 2026-05-05 15:04 | 53.63346 | 9.46251 | 2270 ft | 116 kts | 56° |
| 2026-05-05 15:04 | 53.63753 | 9.47365 | 2183 ft | 110 kts | 57° |
| 2026-05-05 15:05 | 53.64428 | 9.49711 | 1936 ft | 112 kts | 64° |
| 2026-05-05 15:05 | 53.64723 | 9.50934 | 1824 ft | 113 kts | 69° |
| 2026-05-05 15:05 | 53.64894 | 9.52259 | 1620 ft | 114 kts | 86° |
| 2026-05-05 15:06 | 53.64485 | 9.53416 | 1246 ft | 134 kts | 149° |
| 2026-05-05 15:06 | 53.63618 | 9.53943 | 1109 ft | 123 kts | 156° |
| 2026-05-05 15:06 | 53.62851 | 9.54426 | 1142 ft | 115 kts | 154° |
| 2026-05-05 15:06 | 53.62120 | 9.54960 | 1166 ft | 113 kts | 145° |
| 2026-05-05 15:07 | 53.61523 | 9.55769 | 1162 ft | 110 kts | 128° |
| 2026-05-05 15:07 | 53.60988 | 9.56823 | 1212 ft | 126 kts | 124° |
| 2026-05-05 15:07 | 53.60456 | 9.58025 | 1312 ft | 129 kts | 123° |
| 2026-05-05 15:07 | 53.59925 | 9.59239 | 1429 ft | 128 kts | 120° |
| 2026-05-05 15:08 | 53.59423 | 9.60468 | 1559 ft | 126 kts | 119° |
| 2026-05-05 15:08 | 53.59201 | 9.61753 | 1807 ft | 112 kts | 70° |
| 2026-05-05 15:08 | 53.59777 | 9.62650 | 1890 ft | 118 kts | 33° |
| 2026-05-05 15:08 | 53.60427 | 9.63465 | 2062 ft | 119 kts | 48° |
| 2026-05-05 15:09 | 53.61003 | 9.64552 | 2058 ft | 121 kts | 47° |
| 2026-05-05 15:09 | 53.61572 | 9.65551 | 2259 ft | 116 kts | 45° |
| 2026-05-05 15:09 | 53.62121 | 9.66552 | 2368 ft | 121 kts | 47° |
| 2026-05-05 15:09 | 53.62660 | 9.67708 | 2293 ft | 129 kts | 62° |
| 2026-05-05 15:10 | 53.62801 | 9.69227 | 2078 ft | 138 kts | 92° |
| 2026-05-05 15:10 | 53.62701 | 9.70825 | 1988 ft | 133 kts | 92° |
| 2026-05-05 15:10 | 53.62603 | 9.72302 | 2051 ft | 117 kts | 94° |
| 2026-05-05 15:10 | 53.62519 | 9.73629 | 1980 ft | 115 kts | 87° |
| 2026-05-05 15:11 | 53.62726 | 9.74864 | 1945 ft | 109 kts | 52° |
| 2026-05-05 15:11 | 53.63308 | 9.75642 | 2004 ft | 110 kts | 33° |
| 2026-05-05 15:11 | 53.64016 | 9.76242 | 2040 ft | 115 kts | 24° |
| 2026-05-05 15:11 | 53.64744 | 9.76683 | 2098 ft | 108 kts | 21° |
| 2026-05-05 15:12 | 53.65456 | 9.77015 | 2160 ft | 107 kts | 16° |
| 2026-05-05 15:12 | 53.66231 | 9.77314 | 2228 ft | 119 kts | 14° |
| 2026-05-05 15:12 | 53.67027 | 9.77715 | 2248 ft | 122 kts | 26° |
| 2026-05-05 15:12 | 53.67689 | 9.78587 | 2024 ft | 122 kts | 55° |
| 2026-05-05 15:13 | 53.67715 | 9.79987 | 1792 ft | 132 kts | 111° |
| 2026-05-05 15:13 | 53.67110 | 9.81176 | 1593 ft | 131 kts | 137° |
| 2026-05-05 15:13 | 53.66260 | 9.81703 | 1438 ft | 138 kts | 169° |
| 2026-05-05 15:13 | 53.65291 | 9.81840 | 1248 ft | 137 kts | 167° |
| 2026-05-05 15:14 | 53.64472 | 9.82414 | 1163 ft | 125 kts | 134° |
| 2026-05-05 15:14 | 53.63894 | 9.83457 | 1114 ft | 120 kts | 122° |
| 2026-05-05 15:14 | 53.63427 | 9.84614 | 1074 ft | 118 kts | 116° |
| 2026-05-05 15:14 | 53.63038 | 9.85800 | 1060 ft | 113 kts | 112° |
| 2026-05-05 15:15 | 53.62682 | 9.86947 | 1069 ft | 108 kts | 112° |
| 2026-05-05 15:15 | 53.62348 | 9.88121 | 1051 ft | 115 kts | 110° |
| 2026-05-05 15:15 | 53.61965 | 9.89329 | 1069 ft | 116 kts | 111° |
| 2026-05-05 15:15 | 53.61603 | 9.90540 | 957 ft | 108 kts | 110° |
| 2026-05-05 15:16 | 53.61333 | 9.91624 | 863 ft | 99 kts | 105° |
| 2026-05-05 15:16 | 53.61121 | 9.92772 | 727 ft | 98 kts | 97° |
| 2026-05-05 15:16 | 53.61107 | 9.93795 | 537 ft | 79 kts | 82° |
| 2026-05-05 15:16 | 53.61210 | 9.94708 | 400 ft | 79 kts | 75° |
| 2026-05-05 15:17 | 53.61467 | 9.95506 | 317 ft | 79 kts | 53° |
| 2026-05-05 15:17 | 53.61758 | 9.96201 | 178 ft | 71 kts | 54° |
| 2026-05-05 15:17 | 53.62067 | 9.96852 | 68 ft | 71 kts | 52° |
| 2026-05-05 15:17 | 53.62355 | 9.97433 | 35 ft | 52 kts | 52° |
| 2026-05-05 15:18 | 53.62514 | 9.97762 | 35 ft | 27 kts | 52° |
| 2026-05-05 15:18 | 53.62633 | 9.98004 | 36 ft | 31 kts | 50° |
| 2026-05-05 15:18 | 53.62750 | 9.98243 | 37 ft | 18 kts | 49° |
| 2026-05-05 15:18 | 53.62717 | 9.98394 | 39 ft | 13 kts | 139° |
| 2026-05-05 15:19 | 53.62671 | 9.98474 | 41 ft | 10 kts | 92° |
| 2026-05-05 15:19 | 53.62711 | 9.98591 | 41 ft | 13 kts | 49° |
| 2026-05-05 15:19 | 53.62768 | 9.98707 | 41 ft | 13 kts | 51° |
| 2026-05-05 15:19 | 53.62775 | 9.98816 | 41 ft | 13 kts | 159° |
| 2026-05-05 15:20 | 53.62674 | 9.98899 | 41 ft | 12 kts | 156° |
| 2026-05-05 15:20 | 53.62644 | 9.98875 | 41 ft | 1 kts | 244° |
| 2026-05-05 15:20 | 53.62640 | 9.98852 | 41 ft | 0 kts | 242° |